Time;durP1;ratioP1;P1;durP2;ratioP2;P2;SDS_P1;SDS_P2;PMS_P1;PMS_P2;Temp;Humidity;BMP_temperature;BMP_pressure;BME280_temperature;BME280_humidity;BME280_pressure;Samples;Min_cycle;Max_cycle;Signal;HPM_P1;HPM_P2
2022/05/22 00:21:13;;;;;;;;;;;14.40;99.80;;;;;;4937826;28;19924;-65
2022/05/22 00:23:40;;;;;;;;;;;14.50;99.80;;;;;;4947730;28;19914;-64
2022/05/22 00:26:06;;;;;;;;;;;14.50;99.80;;;;;;4950831;28;19949;-64
2022/05/22 00:28:33;;;;;;;;;;;14.40;99.70;;;;;;4954107;28;19922;-65
2022/05/22 00:30:59;;;;;;;;;;;14.40;99.80;;;;;;4951049;28;20018;-64
2022/05/22 00:33:29;;;;;;;;;;;14.40;99.80;;;;;;4951108;28;19914;-64
2022/05/22 00:35:55;;;;;;;;;;;14.40;99.80;;;;;;4950863;28;20379;-65
2022/05/22 00:38:22;;;;;;;;;;;14.40;99.80;;;;;;4951562;28;20352;-64
2022/05/22 00:40:48;;;;;;;;;;;14.40;99.80;;;;;;4959030;28;19926;-64
2022/05/22 00:43:44;;;;;;;;;;;14.40;99.80;;;;;;4950814;28;19910;-64
2022/05/22 00:46:11;;;;;;;;;;;14.50;99.80;;;;;;4934799;29;20269;-65
2022/05/22 00:48:43;;;;;;;;;;;14.50;99.80;;;;;;4951053;28;19914;-65
2022/05/22 00:51:23;;;;;;;;;;;14.50;99.80;;;;;;4936348;28;19945;-64
2022/05/22 00:53:50;;;;;;;;;;;14.50;99.80;;;;;;4947391;28;19985;-65
2022/05/22 00:56:18;;;;;;;;;;;14.60;99.80;;;;;;4939137;29;19949;-64
2022/05/22 00:58:45;;;;;;;;;;;14.60;99.80;;;;;;4941282;29;19918;-64
2022/05/22 01:01:11;;;;;;;;;;;14.60;99.80;;;;;;4934246;29;19910;-64
2022/05/22 01:03:38;;;;;;;;;;;14.70;99.80;;;;;;4953381;28;19922;-64
2022/05/22 01:06:08;;;;;;;;;;;14.70;99.80;;;;;;4951647;28;19910;-65
2022/05/22 01:08:35;;;;;;;;;;;14.70;99.80;;;;;;4954332;28;19910;-65
2022/05/22 01:11:11;;;;;;;;;;;14.80;99.80;;;;;;4956339;28;19910;-65
2022/05/22 01:13:39;;;;;;;;;;;14.70;99.80;;;;;;4953514;28;19966;-66
2022/05/22 01:16:05;;;;;;;;;;;14.70;99.80;;;;;;4949187;28;19910;-66
2022/05/22 01:18:48;;;;;;;;;;;14.80;99.80;;;;;;4968678;28;19918;-66
2022/05/22 01:21:41;;;;;;;;;;;14.80;99.80;;;;;;4937016;28;20271;-66
2022/05/22 01:24:08;;;;;;;;;;;14.90;99.80;;;;;;4940528;29;19936;-66
2022/05/22 01:26:34;;;;;;;;;;;14.90;99.80;;;;;;4954713;28;19917;-65
2022/05/22 01:29:01;;;;;;;;;;;14.90;99.90;;;;;;4936671;29;20383;-66
2022/05/22 01:31:27;;;;;;;;;;;15.00;99.90;;;;;;4951956;29;20265;-66
2022/05/22 01:33:54;;;;;;;;;;;15.00;99.90;;;;;;4954430;28;19906;-65
2022/05/22 01:36:21;;;;;;;;;;;15.00;99.90;;;;;;4936411;29;19906;-65
2022/05/22 01:38:47;;;;;;;;;;;15.00;99.90;;;;;;4966225;28;20005;-65
2022/05/22 01:41:14;;;;;;;;;;;15.00;99.90;;;;;;4954093;29;19914;-65
2022/05/22 01:43:40;;;;;;;;;;;15.00;99.90;;;;;;4953933;28;19906;-65
2022/05/22 01:46:07;;;;;;;;;;;15.10;99.90;;;;;;4956757;28;19914;-65
2022/05/22 01:48:34;;;;;;;;;;;15.10;99.90;;;;;;4953561;28;19917;-66
2022/05/22 02:48:07;;;;;;;;;;;15.70;99.80;;;;;;4932082;29;19966;-68
2022/05/22 02:50:34;;;;;;;;;;;15.50;99.80;;;;;;4932442;29;19931;-68
2022/05/22 02:53:01;;;;;;;;;;;15.50;99.70;;;;;;4940875;29;19911;-68
2022/05/22 02:55:27;;;;;;;;;;;15.50;99.70;;;;;;4943137;29;19914;-68
2022/05/22 02:57:54;;;;;;;;;;;15.50;99.60;;;;;;4916711;29;20021;-68
2022/05/22 03:00:24;;;;;;;;;;;15.50;99.60;;;;;;4933731;29;19911;-69
2022/05/22 03:02:51;;;;;;;;;;;15.40;99.50;;;;;;4920362;29;19911;-68
2022/05/22 03:05:18;;;;;;;;;;;15.40;99.40;;;;;;4937409;29;19954;-68
2022/05/22 03:07:44;;;;;;;;;;;15.40;99.50;;;;;;4936323;29;19906;-69
2022/05/22 03:10:11;;;;;;;;;;;15.30;99.50;;;;;;4928269;29;19911;-67
2022/05/22 03:12:38;;;;;;;;;;;15.40;99.50;;;;;;4937424;29;20362;-67
2022/05/22 03:15:05;;;;;;;;;;;15.20;99.30;;;;;;4945286;29;19917;-67
2022/05/22 03:17:32;;;;;;;;;;;15.30;99.40;;;;;;4944559;29;19958;-67
2022/05/22 03:19:59;;;;;;;;;;;15.30;99.20;;;;;;4936708;29;19910;-67
2022/05/22 03:22:25;;;;;;;;;;;15.30;99.30;;;;;;4936741;29;19907;-68
2022/05/22 03:24:52;;;;;;;;;;;15.50;99.40;;;;;;4937395;29;20485;-68
2022/05/22 03:27:19;;;;;;;;;;;15.40;99.20;;;;;;4943760;29;19941;-68
2022/05/22 03:29:46;;;;;;;;;;;15.40;99.20;;;;;;4935399;29;20020;-68
2022/05/22 03:32:12;;;;;;;;;;;15.40;99.10;;;;;;4919068;29;20009;-65
2022/05/22 03:34:39;;;;;;;;;;;15.30;98.70;;;;;;4933467;29;19950;-67
2022/05/22 03:37:06;;;;;;;;;;;15.50;99.00;;;;;;4932383;29;20333;-69
2022/05/22 03:39:32;;;;;;;;;;;15.40;98.80;;;;;;4935415;29;20763;-67
2022/05/22 03:41:59;;;;;;;;;;;15.50;98.90;;;;;;4934723;29;19918;-67
2022/05/22 03:44:25;;;;;;;;;;;15.60;98.90;;;;;;4930466;29;19915;-66
2022/05/22 05:00:50;;;;;;;;;;;16.00;93.60;;;;;;4947222;28;19937;-66
2022/05/22 05:03:16;;;;;;;;;;;16.00;91.20;;;;;;4952323;28;20036;-67
2022/05/22 05:05:43;;;;;;;;;;;16.10;92.00;;;;;;4951345;28;20281;-67
2022/05/22 05:08:09;;;;;;;;;;;16.20;92.20;;;;;;4953611;28;20350;-65
2022/05/22 05:10:36;;;;;;;;;;;16.20;91.60;;;;;;4950877;28;20325;-66
2022/05/22 05:13:02;;;;;;;;;;;16.20;91.30;;;;;;4950422;29;20317;-67
2022/05/22 05:15:29;;;;;;;;;;;16.20;90.60;;;;;;4953102;28;20002;-66
2022/05/22 05:17:56;;;;;;;;;;;16.20;88.50;;;;;;4951342;28;19918;-65
2022/05/22 05:20:23;;;;;;;;;;;16.30;90.80;;;;;;4952340;28;20012;-66
2022/05/22 05:22:50;;;;;;;;;;;16.30;90.30;;;;;;4952474;28;19914;-65
2022/05/22 05:25:17;;;;;;;;;;;16.30;90.10;;;;;;4954850;28;19911;-66
2022/05/22 05:27:43;;;;;;;;;;;16.40;91.40;;;;;;4950655;28;20008;-67
2022/05/22 05:30:10;;;;;;;;;;;16.30;91.30;;;;;;4950751;28;20282;-68
2022/05/22 05:32:37;;;;;;;;;;;16.40;91.60;;;;;;4952924;28;19920;-67
2022/05/22 05:35:05;;;;;;;;;;;16.20;86.30;;;;;;4949939;28;19914;-67
2022/05/22 05:37:31;;;;;;;;;;;16.30;88.90;;;;;;4947196;28;19937;-65
2022/05/22 05:39:58;;;;;;;;;;;16.30;86.30;;;;;;4950577;28;19910;-64
2022/05/22 05:42:24;;;;;;;;;;;16.40;87.80;;;;;;4947998;28;20548;-64
2022/05/22 05:44:51;;;;;;;;;;;16.40;88.00;;;;;;4950888;28;19949;-67
2022/05/22 05:47:17;;;;;;;;;;;16.50;88.40;;;;;;4949597;28;19930;-65
2022/05/22 05:49:44;;;;;;;;;;;16.50;87.50;;;;;;4950853;29;19911;-66
2022/05/22 05:52:10;;;;;;;;;;;16.50;87.30;;;;;;4943668;28;19946;-67
2022/05/22 05:54:37;;;;;;;;;;;16.50;86.20;;;;;;4948842;28;20013;-67
2022/05/22 05:57:04;;;;;;;;;;;16.50;82.30;;;;;;4955552;28;19936;-66
2022/05/22 07:07:24;;;;;;;;;;;16.60;84.30;;;;;;4941895;28;20036;-66
2022/05/22 07:09:50;;;;;;;;;;;16.50;85.30;;;;;;4946455;28;19945;-65
2022/05/22 07:12:18;;;;;;;;;;;16.50;86.20;;;;;;4946852;28;20304;-71
2022/05/22 07:14:45;;;;;;;;;;;16.40;86.90;;;;;;4931708;29;19926;-68
2022/05/22 07:17:12;;;;;;;;;;;16.40;86.90;;;;;;4948676;28;19954;-67
2022/05/22 07:19:38;;;;;;;;;;;16.30;87.40;;;;;;4950252;28;20364;-65
2022/05/22 07:22:06;;;;;;;;;;;16.30;87.40;;;;;;4946096;28;19945;-67
2022/05/22 07:24:33;;;;;;;;;;;16.30;88.40;;;;;;4927260;28;20009;-67
2022/05/22 07:27:00;;;;;;;;;;;16.20;88.80;;;;;;4947396;28;19981;-66
2022/05/22 07:29:27;;;;;;;;;;;16.20;88.90;;;;;;4949745;28;20018;-67
2022/05/22 07:31:54;;;;;;;;;;;16.20;88.60;;;;;;4949090;28;19942;-68
2022/05/22 07:34:21;;;;;;;;;;;16.10;88.30;;;;;;4950259;28;20334;-67
2022/05/22 07:36:49;;;;;;;;;;;16.10;88.20;;;;;;4953637;29;20345;-67
2022/05/22 07:39:15;;;;;;;;;;;16.10;88.50;;;;;;4953343;29;20403;-67
2022/05/22 07:41:42;;;;;;;;;;;16.10;88.70;;;;;;4954521;28;20285;-66
2022/05/22 07:44:08;;;;;;;;;;;16.10;88.00;;;;;;4949913;28;20377;-67
2022/05/22 07:46:35;;;;;;;;;;;16.00;87.50;;;;;;4953203;29;19911;-67
2022/05/22 07:49:02;;;;;;;;;;;16.00;88.30;;;;;;4953312;29;19921;-67
2022/05/22 07:51:28;;;;;;;;;;;16.00;88.60;;;;;;4953468;29;19910;-67
2022/05/22 07:53:55;;;;;;;;;;;16.00;88.40;;;;;;4963630;28;20408;-67
2022/05/22 07:56:22;;;;;;;;;;;16.00;88.30;;;;;;4954060;29;19922;-67
2022/05/22 07:58:50;;;;;;;;;;;16.00;87.70;;;;;;4953252;29;20329;-67
2022/05/22 08:01:17;;;;;;;;;;;16.00;87.80;;;;;;4951583;29;19919;-67
2022/05/22 08:03:44;;;;;;;;;;;16.00;87.90;;;;;;4961941;28;19914;-67
2022/05/22 11:34:19;;;;;;;;;;;14.30;97.80;;;;;;4949957;28;19949;-68
2022/05/22 11:37:04;;;;;;;;;;;14.30;97.80;;;;;;4958394;28;19925;-69
2022/05/22 11:39:33;;;;;;;;;;;14.30;97.80;;;;;;4946703;29;19922;-67
2022/05/22 11:42:01;;;;;;;;;;;14.20;97.70;;;;;;4940949;29;20483;-67
2022/05/22 11:44:31;;;;;;;;;;;14.20;97.70;;;;;;4935755;29;19953;-67
2022/05/22 11:47:16;;;;;;;;;;;14.20;97.60;;;;;;4936371;29;20001;-67
2022/05/22 11:50:01;;;;;;;;;;;14.20;97.50;;;;;;4949086;29;19915;-67
2022/05/22 11:52:56;;;;;;;;;;;14.20;97.60;;;;;;4953676;29;19990;-67
2022/05/22 11:55:22;;;;;;;;;;;14.20;97.60;;;;;;4938027;29;19957;-67
2022/05/22 11:58:07;;;;;;;;;;;14.20;97.60;;;;;;4953220;29;19947;-67
2022/05/22 12:00:38;;;;;;;;;;;14.10;97.50;;;;;;4954341;28;19941;-68
2022/05/22 12:03:06;;;;;;;;;;;14.00;97.40;;;;;;4936009;29;20527;-67
2022/05/22 12:05:51;;;;;;;;;;;14.00;97.50;;;;;;4953099;28;19906;-67
2022/05/22 12:08:23;;;;;;;;;;;14.00;97.40;;;;;;4952969;28;20331;-68
2022/05/22 12:11:25;;;;;;;;;;;14.10;97.60;;;;;;4952636;29;19958;-68
2022/05/22 12:13:54;;;;;;;;;;;14.10;97.60;;;;;;4903071;29;19915;-68
2022/05/22 12:16:21;;;;;;;;;;;14.00;97.30;;;;;;4928292;29;19918;-67
2022/05/22 12:19:06;;;;;;;;;;;14.00;97.30;;;;;;4936355;29;19946;-68
2022/05/22 12:21:42;;;;;;;;;;;14.00;97.30;;;;;;4956116;28;19962;-68
2022/05/22 12:24:27;;;;;;;;;;;14.00;97.30;;;;;;4973344;28;19918;-68
2022/05/22 12:26:54;;;;;;;;;;;14.00;97.20;;;;;;4975655;28;20376;-68
2022/05/22 12:29:25;;;;;;;;;;;14.00;97.20;;;;;;4974021;28;19913;-68
2022/05/22 12:31:54;;;;;;;;;;;14.00;97.20;;;;;;4970749;28;19906;-68
2022/05/22 12:34:41;;;;;;;;;;;14.00;97.10;;;;;;4951396;28;19966;-67
2022/05/22 12:37:09;;;;;;;;;;;14.00;97.10;;;;;;4955633;28;19910;-68
2022/05/22 12:39:44;;;;;;;;;;;14.00;97.20;;;;;;4958184;28;19926;-68
2022/05/22 12:42:17;;;;;;;;;;;14.00;97.10;;;;;;4966149;28;19914;-68
2022/05/22 12:44:44;;;;;;;;;;;14.00;97.10;;;;;;4955673;28;19969;-68
2022/05/22 12:47:13;;;;;;;;;;;14.00;97.00;;;;;;4938901;29;20049;-68
2022/05/22 12:49:40;;;;;;;;;;;14.00;97.10;;;;;;4956755;28;20005;-68
2022/05/22 12:52:15;;;;;;;;;;;14.00;97.10;;;;;;4968009;28;19918;-68
2022/05/22 12:54:41;;;;;;;;;;;14.00;97.10;;;;;;4955600;28;20280;-68
2022/05/22 12:57:15;;;;;;;;;;;14.10;97.10;;;;;;4955614;29;20381;-68
2022/05/22 12:59:55;;;;;;;;;;;14.00;97.00;;;;;;4955706;28;20377;-68
2022/05/22 13:02:36;;;;;;;;;;;14.00;97.00;;;;;;4955956;29;19997;-68
2022/05/22 13:05:04;;;;;;;;;;;14.00;97.10;;;;;;4968760;28;20360;-68
2022/05/22 13:07:35;;;;;;;;;;;14.00;97.10;;;;;;4954133;28;20017;-68
2022/05/22 13:10:31;;;;;;;;;;;14.00;97.00;;;;;;4955873;29;19947;-68
2022/05/22 13:13:04;;;;;;;;;;;14.00;97.00;;;;;;4943441;28;20321;-68
2022/05/22 13:15:31;;;;;;;;;;;14.00;97.00;;;;;;4972558;28;19958;-68
2022/05/22 13:18:12;;;;;;;;;;;14.00;97.00;;;;;;4973462;28;19914;-68
2022/05/22 13:20:38;;;;;;;;;;;14.10;97.00;;;;;;4974852;28;19993;-68
2022/05/22 19:31:23;;;;;;;;;;;13.30;97.90;;;;;;4946196;28;20487;-68
2022/05/22 19:33:50;;;;;;;;;;;13.30;97.90;;;;;;4935308;29;20021;-69
2022/05/22 19:36:21;;;;;;;;;;;13.30;97.90;;;;;;4936322;29;20293;-69
2022/05/22 19:38:48;;;;;;;;;;;13.30;97.90;;;;;;4919976;29;19971;-68
2022/05/22 19:44:02;;;;;;;;;;;13.30;97.90;;;;;;4929083;29;19918;-69
2022/05/22 19:46:29;;;;;;;;;;;13.30;97.90;;;;;;4938096;29;19906;-68
2022/05/22 19:48:56;;;;;;;;;;;13.30;97.90;;;;;;4952342;29;19917;-69
2022/05/22 19:51:25;;;;;;;;;;;13.20;98.00;;;;;;4952709;29;19913;-68
2022/05/22 19:53:55;;;;;;;;;;;13.30;98.00;;;;;;4937969;29;19910;-68
2022/05/22 19:59:11;;;;;;;;;;;13.30;98.00;;;;;;4950375;29;19922;-68
2022/05/22 20:01:37;;;;;;;;;;;13.30;98.00;;;;;;4938166;29;19914;-68
2022/05/22 20:04:04;;;;;;;;;;;13.30;98.00;;;;;;4938019;29;19915;-69
2022/05/22 20:06:30;;;;;;;;;;;13.30;98.00;;;;;;4938012;29;20327;-68
2022/05/22 20:08:58;;;;;;;;;;;13.30;98.00;;;;;;4937693;29;19929;-69
2022/05/22 20:11:28;;;;;;;;;;;13.30;98.00;;;;;;4936335;29;19962;-69
2022/05/22 20:13:54;;;;;;;;;;;13.30;98.00;;;;;;4937470;29;19918;-68
2022/05/22 20:16:21;;;;;;;;;;;13.30;98.00;;;;;;4937402;29;20325;-68
2022/05/22 20:18:48;;;;;;;;;;;13.30;98.00;;;;;;4937860;29;20002;-68
2022/05/22 20:21:14;;;;;;;;;;;13.30;98.00;;;;;;4937716;29;19913;-68
2022/05/22 20:23:41;;;;;;;;;;;13.30;98.00;;;;;;4937696;29;19906;-69
2022/05/22 20:26:08;;;;;;;;;;;13.30;98.00;;;;;;4937419;29;19911;-69
2022/05/22 20:28:36;;;;;;;;;;;13.30;98.00;;;;;;4937584;29;19913;-69
2022/05/22 20:31:03;;;;;;;;;;;13.30;98.00;;;;;;4937365;29;19997;-68
2022/05/22 20:33:30;;;;;;;;;;;13.30;98.00;;;;;;4956579;29;20361;-68
2022/05/22 20:35:57;;;;;;;;;;;13.30;98.00;;;;;;4956162;28;20645;-68
2022/05/22 20:38:24;;;;;;;;;;;13.30;98.00;;;;;;4956506;29;19943;-68
2022/05/22 20:40:51;;;;;;;;;;;13.30;98.00;;;;;;4956165;28;19934;-68
2022/05/22 20:43:17;;;;;;;;;;;13.40;98.00;;;;;;4955166;29;20317;-68
2022/05/22 20:45:45;;;;;;;;;;;13.40;98.00;;;;;;4939219;29;20012;-67
2022/05/22 20:48:11;;;;;;;;;;;13.30;98.00;;;;;;4956033;29;19906;-69
2022/05/22 20:50:38;;;;;;;;;;;13.30;98.00;;;;;;4955807;29;19949;-69
2022/05/22 20:53:04;;;;;;;;;;;13.30;98.00;;;;;;4956539;29;19926;-68
2022/05/22 20:58:16;;;;;;;;;;;13.30;98.00;;;;;;4956045;29;20033;-67
2022/05/22 21:00:42;;;;;;;;;;;13.30;98.00;;;;;;4954397;28;19917;-68
2022/05/22 21:03:09;;;;;;;;;;;13.30;98.00;;;;;;4955816;29;19906;-68
2022/05/22 21:05:41;;;;;;;;;;;13.30;98.00;;;;;;4956210;28;20009;-68
2022/05/22 21:08:07;;;;;;;;;;;13.30;98.00;;;;;;4955871;29;20336;-68
2022/05/22 21:10:34;;;;;;;;;;;13.40;98.00;;;;;;4938852;29;19907;-68
2022/05/22 21:13:00;;;;;;;;;;;13.40;98.10;;;;;;4955169;29;20019;-68
2022/05/22 21:15:27;;;;;;;;;;;13.40;98.10;;;;;;4955213;28;19914;-68
2022/05/22 21:17:54;;;;;;;;;;;13.40;98.00;;;;;;4955492;29;19940;-68
2022/05/22 21:20:21;;;;;;;;;;;13.40;98.00;;;;;;4955594;29;19906;-68
2022/05/22 21:22:48;;;;;;;;;;;13.40;98.00;;;;;;4937925;29;20383;-68
2022/05/22 21:30:44;;;;;;;;;;;13.40;98.00;;;;;;4955021;29;19955;-68
2022/05/22 21:33:11;;;;;;;;;;;13.40;98.00;;;;;;4938027;29;20373;-68
2022/05/22 21:35:37;;;;;;;;;;;13.50;98.00;;;;;;4938301;29;19907;-68
2022/05/22 21:38:04;;;;;;;;;;;13.40;98.10;;;;;;4955196;29;19922;-68
2022/05/22 21:40:30;;;;;;;;;;;13.40;98.00;;;;;;4954861;29;19913;-68
2022/05/22 21:43:00;;;;;;;;;;;13.50;98.00;;;;;;4938120;29;19954;-68
2022/05/22 21:45:27;;;;;;;;;;;13.40;98.00;;;;;;4955212;28;19907;-68
2022/05/22 21:47:54;;;;;;;;;;;13.40;98.00;;;;;;4955000;29;19997;-68
2022/05/22 21:50:21;;;;;;;;;;;13.40;98.00;;;;;;4952665;28;19955;-69
2022/05/22 21:52:48;;;;;;;;;;;13.40;98.00;;;;;;4954593;28;20009;-68
2022/05/22 21:55:17;;;;;;;;;;;13.40;98.00;;;;;;4954782;28;19910;-68
2022/05/22 21:57:45;;;;;;;;;;;13.50;98.00;;;;;;4954595;29;19907;-68
2022/05/22 22:00:27;;;;;;;;;;;13.50;98.10;;;;;;4955013;29;20413;-68
2022/05/22 22:02:53;;;;;;;;;;;13.50;98.10;;;;;;4954829;29;19906;-68
2022/05/22 22:05:20;;;;;;;;;;;13.60;98.10;;;;;;4954501;28;19906;-68
2022/05/22 22:07:47;;;;;;;;;;;13.60;98.20;;;;;;4954316;29;19949;-69
2022/05/22 22:10:13;;;;;;;;;;;13.70;98.20;;;;;;4954342;29;19961;-67
2022/05/22 22:12:40;;;;;;;;;;;13.70;98.20;;;;;;4954699;29;19946;-68
2022/05/22 22:15:06;;;;;;;;;;;13.70;98.20;;;;;;4954207;28;19910;-68
2022/05/22 22:17:33;;;;;;;;;;;13.70;98.20;;;;;;4954128;29;19910;-68
2022/05/22 22:20:00;;;;;;;;;;;13.80;98.20;;;;;;4955106;28;20063;-68
2022/05/22 22:22:26;;;;;;;;;;;13.80;98.20;;;;;;4970578;28;20033;-67
2022/05/22 22:24:53;;;;;;;;;;;13.80;98.20;;;;;;4959364;28;19981;-68
2022/05/22 22:27:19;;;;;;;;;;;13.90;98.20;;;;;;4952174;28;19910;-68
2022/05/22 22:29:46;;;;;;;;;;;13.90;98.20;;;;;;4953849;29;19914;-69
2022/05/22 22:32:13;;;;;;;;;;;14.00;98.30;;;;;;4954082;29;20325;-69
2022/05/22 22:34:39;;;;;;;;;;;14.00;98.30;;;;;;4937187;29;20387;-69
2022/05/22 22:37:06;;;;;;;;;;;14.00;98.30;;;;;;4954212;29;19934;-69
2022/05/22 22:39:32;;;;;;;;;;;14.00;98.30;;;;;;4953043;28;20392;-69
2022/05/22 22:41:59;;;;;;;;;;;14.00;98.20;;;;;;4954155;29;19949;-70
2022/05/22 22:44:28;;;;;;;;;;;14.10;98.30;;;;;;4936764;29;19906;-69
2022/05/22 22:46:54;;;;;;;;;;;14.10;98.30;;;;;;4936885;29;19948;-69
2022/05/22 22:49:21;;;;;;;;;;;14.20;98.30;;;;;;4953821;29;20002;-69
2022/05/22 22:51:47;;;;;;;;;;;14.10;98.30;;;;;;4953994;29;19914;-69
2022/05/22 22:59:43;;;;;;;;;;;14.30;98.40;;;;;;4939672;29;19971;-68
2022/05/22 23:02:10;;;;;;;;;;;14.30;98.50;;;;;;4954245;29;19910;-69
2022/05/22 23:04:36;;;;;;;;;;;14.40;98.50;;;;;;4954021;28;19922;-68
2022/05/22 23:07:03;;;;;;;;;;;14.40;98.50;;;;;;4957568;29;19944;-69
2022/05/22 23:09:30;;;;;;;;;;;14.50;98.50;;;;;;4957894;29;19902;-68
2022/05/22 23:11:57;;;;;;;;;;;14.50;98.50;;;;;;4940726;29;19911;-68
2022/05/22 23:14:26;;;;;;;;;;;14.50;98.50;;;;;;4940677;29;20355;-69
2022/05/22 23:16:53;;;;;;;;;;;14.50;98.50;;;;;;4940895;29;19910;-69
